KIML

Imperial Municipal Airport

Imperial, Nebraska, USA
METAR KIML 221353Z AUTO 34005KT 10SM CLR 04/01 A3014 RMK AO2 SLP215 T00440006
Observed Flight Rules
Oct-22 @ 13:53 UTC (27 minutes ago) Visual Flight Rules
Wind Visibility Clouds
340° at 5 knots 10 miles
  • Clear skies
Temperatures Readings
Current 4°C / 39°F
Dewpoint 1°C / 34°F
Humidity 81%
Altimeter 30.14" Hg
Pressure 1021.5 hPa
Elevation 998
METAR KIML 221353Z AUTO 34005KT 10SM CLR 04/01 A3014 RMK AO2 SLP215 T00440006
Observed Flight Rules
Oct-22 @ 13:53 UTC
(27 minutes ago)
VFR
Wind Visibility
340° at 5 knots 10 miles
Clouds
  • Clear skies
Temperature Dewpoint
4°C / 39°F 1°C / 34°F
Humidity Altimeter Pressure
81% 30.14" Hg 1021.5 hPa